createdAt,value
2022-11-18T00:00:45.794Z,47.30
2022-11-18T00:05:54.610Z,47.30
2022-11-18T00:10:57.742Z,47.50
2022-11-18T00:16:07.318Z,47.50
2022-11-18T00:21:12.810Z,47.70
2022-11-18T00:26:16.400Z,47.70
2022-11-18T00:31:21.122Z,48.00
2022-11-18T00:36:24.294Z,48.20
2022-11-18T00:41:47.628Z,48.20
2022-11-18T00:46:52.398Z,48.20
2022-11-18T00:51:55.522Z,48.20
2022-11-18T00:56:58.640Z,48.20
2022-11-18T01:02:03.161Z,48.10
2022-11-18T01:07:06.435Z,48.10
2022-11-18T01:12:32.383Z,48.10
2022-11-18T01:17:36.924Z,48.10
2022-11-18T01:22:40.074Z,48.10
2022-11-18T01:27:43.319Z,48.00
2022-11-18T01:32:47.807Z,48.00
2022-11-18T01:37:50.952Z,47.90
2022-11-18T01:42:54.216Z,47.90
2022-11-18T01:48:02.706Z,47.90
2022-11-18T01:53:09.858Z,48.20
2022-11-18T01:58:19.053Z,48.20
2022-11-18T02:03:24.501Z,48.40
2022-11-18T02:08:30.274Z,48.40
2022-11-18T02:13:33.518Z,48.20
2022-11-18T02:18:48.786Z,48.30
2022-11-18T02:24:26.371Z,48.70
2022-11-18T02:29:38.540Z,48.50
2022-11-18T02:34:50.065Z,48.40
2022-11-18T02:39:57.957Z,48.30
2022-11-18T02:45:07.035Z,48.50
2022-11-18T02:50:14.480Z,48.20
2022-11-18T02:55:19.482Z,48.10
2022-11-18T03:00:24.005Z,48.10
2022-11-18T03:05:37.800Z,48.00
2022-11-18T03:10:45.516Z,47.90
2022-11-18T03:16:00.756Z,47.70
2022-11-18T03:21:12.065Z,48.00
2022-11-18T03:26:19.873Z,48.10
2022-11-18T03:31:27.622Z,48.10
2022-11-18T03:36:37.565Z,48.10
2022-11-18T03:41:46.878Z,48.10
2022-11-18T03:46:55.884Z,48.20
2022-11-18T03:52:04.138Z,48.20
2022-11-18T03:57:13.510Z,48.20
2022-11-18T04:02:20.069Z,48.20
2022-11-18T04:07:29.073Z,48.20
2022-11-18T04:12:36.533Z,48.20
2022-11-18T04:17:43.054Z,48.20
2022-11-18T04:22:46.430Z,48.20
2022-11-18T04:27:49.909Z,48.20
2022-11-18T04:32:54.440Z,48.20
2022-11-18T04:37:57.526Z,48.10
2022-11-18T04:43:02.670Z,48.10
2022-11-18T04:48:07.849Z,48.10
2022-11-18T04:53:10.959Z,48.50
2022-11-18T04:58:14.048Z,48.30
2022-11-18T05:03:18.504Z,48.40
2022-11-18T05:08:21.620Z,48.70
2022-11-18T05:13:24.841Z,48.60
2022-11-18T05:18:29.310Z,48.80
2022-11-18T05:23:32.410Z,48.90
2022-11-18T05:28:35.981Z,48.90
2022-11-18T05:33:40.821Z,49.00
2022-11-18T05:38:44.511Z,49.10
2022-11-18T05:43:47.601Z,48.90
2022-11-18T05:48:52.140Z,48.80
2022-11-18T05:53:56.889Z,49.00
2022-11-18T05:58:59.985Z,48.80
2022-11-18T06:04:10.874Z,48.60
2022-11-18T06:09:16.646Z,49.10
2022-11-18T06:14:23.377Z,49.00
2022-11-18T06:19:28.153Z,49.00
2022-11-18T06:24:34.500Z,48.60
2022-11-18T06:29:37.611Z,48.60
2022-11-18T06:34:42.301Z,48.60
2022-11-18T06:39:45.558Z,49.40
2022-11-18T06:44:48.645Z,49.30
2022-11-18T06:49:53.129Z,48.60
2022-11-18T06:54:56.240Z,49.00
2022-11-18T07:00:02.334Z,48.70
2022-11-18T07:05:07.868Z,48.90
2022-11-18T07:10:11.370Z,49.20
2022-11-18T07:15:14.473Z,48.90
2022-11-18T07:20:19.149Z,49.00
2022-11-18T07:25:22.303Z,49.10
2022-11-18T07:30:25.443Z,48.80
2022-11-18T07:35:29.934Z,48.80
2022-11-18T07:40:33.037Z,49.10
2022-11-18T07:45:36.186Z,49.10
2022-11-18T07:50:45.837Z,49.10
2022-11-18T07:55:50.203Z,49.30
2022-11-18T08:00:53.517Z,49.10
2022-11-18T08:06:02.189Z,48.90
2022-11-18T08:11:07.162Z,49.50
2022-11-18T08:16:14.884Z,48.80
2022-11-18T08:21:20.559Z,49.20
2022-11-18T08:26:24.971Z,49.30
2022-11-18T08:31:30.580Z,49.00
2022-11-18T08:36:36.876Z,48.80
2022-11-18T08:41:41.640Z,49.20
2022-11-18T08:46:45.656Z,48.80
2022-11-18T08:51:50.140Z,48.50
2022-11-18T08:56:53.368Z,48.30
2022-11-18T09:01:56.554Z,48.20
2022-11-18T09:07:01.184Z,48.50
2022-11-18T09:12:04.499Z,48.70
2022-11-18T09:17:07.757Z,48.60
2022-11-18T09:22:19.348Z,48.60
2022-11-18T09:27:22.449Z,48.70
2022-11-18T09:32:26.138Z,48.40
2022-11-18T09:37:30.687Z,48.40
2022-11-18T09:42:54.942Z,48.40
2022-11-18T09:48:00.198Z,48.90
2022-11-18T09:53:18.518Z,49.10
2022-11-18T09:58:31.125Z,48.70
2022-11-18T10:03:34.793Z,48.50
2022-11-18T10:08:44.620Z,48.70
2022-11-18T10:14:01.303Z,48.90
2022-11-18T10:19:12.430Z,48.90
2022-11-18T10:24:21.237Z,49.00
2022-11-18T10:29:25.105Z,49.10
2022-11-18T10:34:28.265Z,49.10
2022-11-18T10:39:33.648Z,49.00
2022-11-18T10:44:39.116Z,49.10
2022-11-18T10:49:42.284Z,49.10
2022-11-18T10:54:47.244Z,49.00
2022-11-18T10:59:52.680Z,49.30
2022-11-18T11:04:56.045Z,48.90
2022-11-18T11:10:20.882Z,49.10
2022-11-18T11:15:29.884Z,49.50
2022-11-18T11:20:33.099Z,49.70
2022-11-18T11:31:16.118Z,49.30
2022-11-18T11:36:33.533Z,49.10
2022-11-18T11:41:46.890Z,49.00
2022-11-18T11:47:24.991Z,48.90
2022-11-18T11:52:37.884Z,48.50
2022-11-18T11:57:54.309Z,48.50
2022-11-18T12:03:06.757Z,48.80
2022-11-18T12:08:15.839Z,48.90
2022-11-18T12:13:38.907Z,48.70
2022-11-18T12:18:47.855Z,49.00
2022-11-18T12:24:30.986Z,48.80
2022-11-18T12:29:54.220Z,48.90
2022-11-18T12:35:01.052Z,48.70
2022-11-18T12:40:04.188Z,48.70
2022-11-18T12:45:40.607Z,48.70
2022-11-18T12:50:52.522Z,49.00
2022-11-18T12:55:55.999Z,48.90
2022-11-18T13:01:07.842Z,48.80
2022-11-18T13:06:25.376Z,48.60
2022-11-18T13:11:48.236Z,48.80
2022-11-18T13:17:08.798Z,48.40
2022-11-18T13:22:37.158Z,48.40
2022-11-18T13:27:50.656Z,48.80
2022-11-18T13:32:58.896Z,49.10
2022-11-18T13:38:04.078Z,49.10
2022-11-18T13:43:07.232Z,49.10
2022-11-18T13:48:15.333Z,49.10
2022-11-18T13:53:30.491Z,49.30
2022-11-18T13:59:10.326Z,49.30
2022-11-18T14:04:05.091Z,49.20
2022-11-18T14:09:19.966Z,49.00
2022-11-18T14:14:30.644Z,49.40
2022-11-18T14:19:34.923Z,49.30
2022-11-18T14:24:39.529Z,49.00
2022-11-18T14:29:50.771Z,49.00
2022-11-18T14:35:00.247Z,49.20
2022-11-18T14:40:04.996Z,49.30
2022-11-18T14:45:08.699Z,49.20
2022-11-18T14:50:14.015Z,49.20
2022-11-18T14:55:18.545Z,49.40
2022-11-18T15:00:21.860Z,49.30
2022-11-18T15:05:24.986Z,49.20
2022-11-18T15:10:29.551Z,49.30
2022-11-18T15:15:32.680Z,49.50
2022-11-18T15:20:35.766Z,49.40
2022-11-18T15:25:40.423Z,49.50
2022-11-18T15:30:43.663Z,49.70
2022-11-18T15:35:46.755Z,49.50
2022-11-18T15:40:51.260Z,49.60
2022-11-18T15:45:58.219Z,49.70
2022-11-18T15:51:01.285Z,50.00
2022-11-18T15:56:27.508Z,49.60
2022-11-18T16:01:32.695Z,50.30
2022-11-18T16:06:36.046Z,50.20
2022-11-18T16:11:58.421Z,50.00
2022-11-18T16:17:01.531Z,50.20
2022-11-18T16:22:04.619Z,50.00
2022-11-18T16:27:09.083Z,50.10
2022-11-18T16:32:15.239Z,50.20
2022-11-18T16:37:18.314Z,50.40
2022-11-18T16:42:22.967Z,50.20
2022-11-18T16:47:26.126Z,50.20
2022-11-18T16:52:29.297Z,50.10
2022-11-18T16:57:33.815Z,49.90
2022-11-18T17:02:36.945Z,50.10
2022-11-18T17:07:40.244Z,49.80
2022-11-18T17:12:44.751Z,49.90
2022-11-18T17:17:47.815Z,50.00
2022-11-18T17:22:53.394Z,50.00
2022-11-18T17:27:57.833Z,50.40
2022-11-18T17:33:00.972Z,50.10
2022-11-18T17:38:04.066Z,49.90
2022-11-18T17:43:08.555Z,49.90
2022-11-18T17:48:11.805Z,49.90
2022-11-18T17:53:15.340Z,49.70
2022-11-18T17:58:19.796Z,49.50
2022-11-18T18:03:22.830Z,49.40
2022-11-18T18:08:26.006Z,49.30
2022-11-18T18:13:47.919Z,49.40
2022-11-18T18:18:51.361Z,49.60
2022-11-18T18:23:54.740Z,49.60
2022-11-18T18:28:59.435Z,49.50
2022-11-18T18:34:02.841Z,49.70
2022-11-18T18:39:06.022Z,49.60
2022-11-18T18:44:15.351Z,49.30
2022-11-18T18:49:22.435Z,49.40
2022-11-18T18:54:25.499Z,49.30
2022-11-18T18:59:30.106Z,49.10
2022-11-18T19:04:33.246Z,49.10
2022-11-18T19:09:37.656Z,49.20
2022-11-18T19:14:42.153Z,49.20
2022-11-18T19:20:02.668Z,49.30
2022-11-18T19:25:06.360Z,49.40
2022-11-18T19:30:12.558Z,49.50
2022-11-18T19:35:15.872Z,49.60
2022-11-18T19:40:19.386Z,49.50
2022-11-18T19:45:23.900Z,49.60
2022-11-18T19:50:27.076Z,49.50
2022-11-18T19:55:30.293Z,49.50
2022-11-18T20:00:34.874Z,49.20
2022-11-18T20:05:53.238Z,49.30
2022-11-18T20:10:56.472Z,49.30
2022-11-18T20:16:05.202Z,49.30
2022-11-18T20:21:10.553Z,49.30
2022-11-18T20:26:16.232Z,49.10
2022-11-18T20:31:22.661Z,48.90
2022-11-18T20:36:27.729Z,49.00
2022-11-18T20:41:31.967Z,49.00
2022-11-18T20:46:37.759Z,48.90
2022-11-18T20:51:40.878Z,49.10
2022-11-18T20:56:44.040Z,49.00
2022-11-18T21:01:49.116Z,49.00
2022-11-18T21:06:57.434Z,49.00
2022-11-18T21:12:00.814Z,48.80
2022-11-18T21:17:05.721Z,48.90
2022-11-18T21:22:08.866Z,49.60
2022-11-18T21:27:12.734Z,48.80
2022-11-18T21:32:17.208Z,48.80
2022-11-18T21:37:20.355Z,49.00
2022-11-18T21:42:23.566Z,48.90
2022-11-18T21:47:28.169Z,48.90
2022-11-18T21:52:31.433Z,48.90
2022-11-18T21:57:34.695Z,49.00
2022-11-18T22:02:39.436Z,48.90
2022-11-18T22:07:42.564Z,49.10
2022-11-18T22:12:48.580Z,49.00
2022-11-18T22:17:53.198Z,49.10
2022-11-18T22:22:56.381Z,49.10
2022-11-18T22:27:59.532Z,49.10
2022-11-18T22:33:04.056Z,49.10
2022-11-18T22:38:07.117Z,49.00
2022-11-18T22:43:10.346Z,49.00
2022-11-18T22:48:14.830Z,49.00
2022-11-18T22:53:18.017Z,49.00
2022-11-18T22:58:21.206Z,49.00
2022-11-18T23:03:25.679Z,49.00
2022-11-18T23:08:33.607Z,49.20
2022-11-18T23:13:54.575Z,49.40
2022-11-18T23:18:59.047Z,49.30
2022-11-18T23:24:02.328Z,49.40
2022-11-18T23:29:05.498Z,49.30
2022-11-18T23:34:11.206Z,49.30
2022-11-18T23:39:14.764Z,49.40
2022-11-18T23:44:37.863Z,49.20
2022-11-18T23:49:42.372Z,49.20
2022-11-18T23:54:45.441Z,49.10
2022-11-18T23:59:48.547Z,49.20
